sensor_id;sensor_type;location;lat;lon;timestamp;P1;durP1;ratioP1;P2;durP2;ratioP2
20988;SDS011;10653;47.052;15.410;2023-02-18T00:00:51;15.50;;;10.83;;
20988;SDS011;10653;47.052;15.410;2023-02-18T00:03:17;13.27;;;11.10;;
20988;SDS011;10653;47.052;15.410;2023-02-18T00:05:43;18.53;;;12.33;;
20988;SDS011;10653;47.052;15.410;2023-02-18T00:08:09;14.87;;;11.83;;
20988;SDS011;10653;47.052;15.410;2023-02-18T00:10:35;22.73;;;13.70;;
20988;SDS011;10653;47.052;15.410;2023-02-18T00:13:01;18.83;;;12.70;;
20988;SDS011;10653;47.052;15.410;2023-02-18T00:15:27;17.33;;;9.70;;
20988;SDS011;10653;47.052;15.410;2023-02-18T00:17:53;18.17;;;12.80;;
20988;SDS011;10653;47.052;15.410;2023-02-18T00:20:19;13.07;;;9.67;;
20988;SDS011;10653;47.052;15.410;2023-02-18T00:22:45;13.40;;;10.33;;
20988;SDS011;10653;47.052;15.410;2023-02-18T00:25:11;16.03;;;10.73;;
20988;SDS011;10653;47.052;15.410;2023-02-18T00:27:37;14.10;;;10.80;;
20988;SDS011;10653;47.052;15.410;2023-02-18T00:30:03;14.40;;;10.67;;
20988;SDS011;10653;47.052;15.410;2023-02-18T00:32:29;19.53;;;10.97;;
20988;SDS011;10653;47.052;15.410;2023-02-18T00:34:55;20.47;;;10.73;;
20988;SDS011;10653;47.052;15.410;2023-02-18T00:37:21;17.53;;;11.03;;
20988;SDS011;10653;47.052;15.410;2023-02-18T00:39:47;20.03;;;11.57;;
20988;SDS011;10653;47.052;15.410;2023-02-18T00:42:13;16.13;;;11.10;;
20988;SDS011;10653;47.052;15.410;2023-02-18T00:44:39;13.50;;;8.60;;
20988;SDS011;10653;47.052;15.410;2023-02-18T00:47:05;13.53;;;10.33;;
20988;SDS011;10653;47.052;15.410;2023-02-18T00:49:31;12.53;;;10.77;;
20988;SDS011;10653;47.052;15.410;2023-02-18T00:51:58;12.57;;;9.23;;
20988;SDS011;10653;47.052;15.410;2023-02-18T00:54:24;10.30;;;8.70;;
20988;SDS011;10653;47.052;15.410;2023-02-18T00:56:50;15.13;;;10.60;;
20988;SDS011;10653;47.052;15.410;2023-02-18T00:59:16;13.60;;;9.63;;
20988;SDS011;10653;47.052;15.410;2023-02-18T01:01:42;13.80;;;9.80;;
20988;SDS011;10653;47.052;15.410;2023-02-18T01:04:08;14.23;;;11.80;;
20988;SDS011;10653;47.052;15.410;2023-02-18T01:06:34;16.87;;;11.20;;
20988;SDS011;10653;47.052;15.410;2023-02-18T01:09:00;14.77;;;9.83;;
20988;SDS011;10653;47.052;15.410;2023-02-18T01:11:26;16.37;;;12.93;;
20988;SDS011;10653;47.052;15.410;2023-02-18T01:13:52;15.10;;;12.17;;
20988;SDS011;10653;47.052;15.410;2023-02-18T01:16:19;14.43;;;10.47;;
20988;SDS011;10653;47.052;15.410;2023-02-18T01:18:45;13.70;;;9.60;;
20988;SDS011;10653;47.052;15.410;2023-02-18T01:21:11;16.13;;;11.70;;
20988;SDS011;10653;47.052;15.410;2023-02-18T01:23:37;14.80;;;9.50;;
20988;SDS011;10653;47.052;15.410;2023-02-18T01:26:04;17.47;;;10.33;;
20988;SDS011;10653;47.052;15.410;2023-02-18T01:28:30;15.23;;;9.63;;
20988;SDS011;10653;47.052;15.410;2023-02-18T01:30:56;14.53;;;9.53;;
20988;SDS011;10653;47.052;15.410;2023-02-18T01:33:22;11.23;;;8.60;;
20988;SDS011;10653;47.052;15.410;2023-02-18T01:35:48;14.80;;;9.80;;
20988;SDS011;10653;47.052;15.410;2023-02-18T01:38:14;11.57;;;9.47;;
20988;SDS011;10653;47.052;15.410;2023-02-18T01:40:45;12.30;;;9.40;;
20988;SDS011;10653;47.052;15.410;2023-02-18T01:43:12;11.17;;;8.20;;
20988;SDS011;10653;47.052;15.410;2023-02-18T01:48:12;14.50;;;8.90;;
20988;SDS011;10653;47.052;15.410;2023-02-18T01:50:44;14.10;;;8.67;;
20988;SDS011;10653;47.052;15.410;2023-02-18T01:53:11;11.30;;;8.17;;
20988;SDS011;10653;47.052;15.410;2023-02-18T01:55:39;12.33;;;8.80;;
20988;SDS011;10653;47.052;15.410;2023-02-18T01:58:05;11.20;;;8.93;;
20988;SDS011;10653;47.052;15.410;2023-02-18T02:00:31;11.97;;;8.20;;
20988;SDS011;10653;47.052;15.410;2023-02-18T02:02:58;10.20;;;7.60;;
20988;SDS011;10653;47.052;15.410;2023-02-18T02:05:28;12.23;;;8.27;;
20988;SDS011;10653;47.052;15.410;2023-02-18T02:07:55;9.43;;;7.90;;
20988;SDS011;10653;47.052;15.410;2023-02-18T02:10:21;8.67;;;7.50;;
20988;SDS011;10653;47.052;15.410;2023-02-18T02:39:13;10.27;;;6.80;;
20988;SDS011;10653;47.052;15.410;2023-02-18T02:41:45;9.60;;;6.23;;
20988;SDS011;10653;47.052;15.410;2023-02-18T02:44:18;7.83;;;5.80;;
20988;SDS011;10653;47.052;15.410;2023-02-18T02:46:46;14.23;;;7.63;;
20988;SDS011;10653;47.052;15.410;2023-02-18T02:54:19;9.93;;;7.03;;
20988;SDS011;10653;47.052;15.410;2023-02-18T02:56:46;10.20;;;7.43;;
20988;SDS011;10653;47.052;15.410;2023-02-18T02:59:14;11.13;;;7.13;;
20988;SDS011;10653;47.052;15.410;2023-02-18T03:11:57;10.07;;;6.77;;
20988;SDS011;10653;47.052;15.410;2023-02-18T03:14:27;11.50;;;7.23;;
20988;SDS011;10653;47.052;15.410;2023-02-18T03:19:52;9.27;;;6.50;;
20988;SDS011;10653;47.052;15.410;2023-02-18T03:22:24;10.93;;;7.13;;
20988;SDS011;10653;47.052;15.410;2023-02-18T03:24:52;9.63;;;6.20;;
20988;SDS011;10653;47.052;15.410;2023-02-18T03:27:20;8.57;;;6.60;;
20988;SDS011;10653;47.052;15.410;2023-02-18T03:29:49;9.30;;;6.73;;
20988;SDS011;10653;47.052;15.410;2023-02-18T03:32:17;7.23;;;6.03;;
20988;SDS011;10653;47.052;15.410;2023-02-18T03:34:46;7.97;;;6.20;;
20988;SDS011;10653;47.052;15.410;2023-02-18T03:37:13;10.83;;;7.17;;
20988;SDS011;10653;47.052;15.410;2023-02-18T03:39:40;10.10;;;6.87;;
20988;SDS011;10653;47.052;15.410;2023-02-18T03:42:07;8.00;;;6.97;;
20988;SDS011;10653;47.052;15.410;2023-02-18T03:44:33;8.20;;;6.80;;
20988;SDS011;10653;47.052;15.410;2023-02-18T03:46:59;8.63;;;6.30;;
20988;SDS011;10653;47.052;15.410;2023-02-18T03:49:25;9.60;;;6.60;;
20988;SDS011;10653;47.052;15.410;2023-02-18T03:51:51;6.40;;;5.23;;
20988;SDS011;10653;47.052;15.410;2023-02-18T03:54:17;8.37;;;5.63;;
20988;SDS011;10653;47.052;15.410;2023-02-18T03:56:44;8.10;;;6.97;;
20988;SDS011;10653;47.052;15.410;2023-02-18T03:59:10;9.30;;;6.77;;
20988;SDS011;10653;47.052;15.410;2023-02-18T04:01:37;12.80;;;6.80;;
20988;SDS011;10653;47.052;15.410;2023-02-18T04:04:03;8.77;;;6.03;;
20988;SDS011;10653;47.052;15.410;2023-02-18T04:06:29;8.63;;;6.20;;
20988;SDS011;10653;47.052;15.410;2023-02-18T04:08:55;10.20;;;5.47;;
20988;SDS011;10653;47.052;15.410;2023-02-18T04:11:21;7.70;;;5.40;;
20988;SDS011;10653;47.052;15.410;2023-02-18T04:13:47;10.27;;;6.13;;
20988;SDS011;10653;47.052;15.410;2023-02-18T04:16:13;9.50;;;7.00;;
20988;SDS011;10653;47.052;15.410;2023-02-18T04:18:39;14.73;;;9.67;;
20988;SDS011;10653;47.052;15.410;2023-02-18T04:21:05;12.10;;;8.80;;
20988;SDS011;10653;47.052;15.410;2023-02-18T04:23:31;8.10;;;6.73;;
20988;SDS011;10653;47.052;15.410;2023-02-18T04:25:58;8.23;;;6.73;;
20988;SDS011;10653;47.052;15.410;2023-02-18T04:28:24;13.87;;;7.27;;
20988;SDS011;10653;47.052;15.410;2023-02-18T04:30:50;9.33;;;7.43;;
20988;SDS011;10653;47.052;15.410;2023-02-18T04:33:16;7.97;;;5.30;;
20988;SDS011;10653;47.052;15.410;2023-02-18T04:35:42;9.27;;;6.63;;
20988;SDS011;10653;47.052;15.410;2023-02-18T04:38:08;8.67;;;6.90;;
20988;SDS011;10653;47.052;15.410;2023-02-18T04:40:35;10.60;;;6.20;;
20988;SDS011;10653;47.052;15.410;2023-02-18T04:43:01;11.20;;;6.50;;
20988;SDS011;10653;47.052;15.410;2023-02-18T04:45:27;6.63;;;5.20;;
20988;SDS011;10653;47.052;15.410;2023-02-18T04:47:53;10.03;;;6.20;;
20988;SDS011;10653;47.052;15.410;2023-02-18T04:50:20;8.13;;;5.73;;
20988;SDS011;10653;47.052;15.410;2023-02-18T04:52:46;8.70;;;5.60;;
20988;SDS011;10653;47.052;15.410;2023-02-18T04:55:12;5.87;;;4.90;;
20988;SDS011;10653;47.052;15.410;2023-02-18T04:57:38;8.57;;;5.37;;
20988;SDS011;10653;47.052;15.410;2023-02-18T05:00:05;11.17;;;6.50;;
20988;SDS011;10653;47.052;15.410;2023-02-18T05:02:32;7.13;;;4.80;;
20988;SDS011;10653;47.052;15.410;2023-02-18T05:04:58;7.27;;;5.63;;
20988;SDS011;10653;47.052;15.410;2023-02-18T05:07:24;6.07;;;4.70;;
20988;SDS011;10653;47.052;15.410;2023-02-18T05:09:50;8.03;;;5.40;;
20988;SDS011;10653;47.052;15.410;2023-02-18T05:12:16;7.93;;;5.63;;
20988;SDS011;10653;47.052;15.410;2023-02-18T05:14:42;6.93;;;5.10;;
20988;SDS011;10653;47.052;15.410;2023-02-18T05:17:08;8.67;;;5.80;;
20988;SDS011;10653;47.052;15.410;2023-02-18T05:19:34;7.40;;;5.60;;
20988;SDS011;10653;47.052;15.410;2023-02-18T05:22:00;5.93;;;5.07;;
20988;SDS011;10653;47.052;15.410;2023-02-18T05:24:26;6.30;;;5.70;;
20988;SDS011;10653;47.052;15.410;2023-02-18T05:26:52;9.03;;;6.00;;
20988;SDS011;10653;47.052;15.410;2023-02-18T05:29:18;6.83;;;5.27;;
20988;SDS011;10653;47.052;15.410;2023-02-18T05:31:44;8.00;;;4.73;;
20988;SDS011;10653;47.052;15.410;2023-02-18T05:34:10;7.73;;;5.63;;
20988;SDS011;10653;47.052;15.410;2023-02-18T05:36:36;11.00;;;6.00;;
20988;SDS011;10653;47.052;15.410;2023-02-18T05:39:02;8.10;;;6.57;;
20988;SDS011;10653;47.052;15.410;2023-02-18T05:41:28;11.57;;;6.37;;
20988;SDS011;10653;47.052;15.410;2023-02-18T05:43:54;7.70;;;5.87;;
20988;SDS011;10653;47.052;15.410;2023-02-18T05:46:39;8.23;;;6.60;;
20988;SDS011;10653;47.052;15.410;2023-02-18T05:49:05;8.10;;;5.10;;
20988;SDS011;10653;47.052;15.410;2023-02-18T05:51:31;11.07;;;5.53;;
20988;SDS011;10653;47.052;15.410;2023-02-18T05:53:57;8.90;;;5.73;;
20988;SDS011;10653;47.052;15.410;2023-02-18T05:56:23;9.00;;;7.10;;
20988;SDS011;10653;47.052;15.410;2023-02-18T05:58:49;10.83;;;6.90;;
20988;SDS011;10653;47.052;15.410;2023-02-18T06:01:15;12.53;;;6.80;;
20988;SDS011;10653;47.052;15.410;2023-02-18T06:03:41;8.30;;;5.43;;
20988;SDS011;10653;47.052;15.410;2023-02-18T06:06:07;7.13;;;5.10;;
20988;SDS011;10653;47.052;15.410;2023-02-18T06:08:33;7.20;;;5.43;;
20988;SDS011;10653;47.052;15.410;2023-02-18T06:10:59;5.70;;;4.97;;
20988;SDS011;10653;47.052;15.410;2023-02-18T06:13:25;7.50;;;5.07;;
20988;SDS011;10653;47.052;15.410;2023-02-18T06:15:51;8.60;;;5.33;;
20988;SDS011;10653;47.052;15.410;2023-02-18T06:18:18;6.97;;;4.93;;
20988;SDS011;10653;47.052;15.410;2023-02-18T06:20:48;8.73;;;5.43;;
20988;SDS011;10653;47.052;15.410;2023-02-18T06:23:14;6.57;;;4.97;;
20988;SDS011;10653;47.052;15.410;2023-02-18T06:25:40;9.73;;;6.20;;
20988;SDS011;10653;47.052;15.410;2023-02-18T06:28:06;8.40;;;5.87;;
20988;SDS011;10653;47.052;15.410;2023-02-18T06:30:32;7.20;;;5.20;;
20988;SDS011;10653;47.052;15.410;2023-02-18T06:33:00;8.13;;;5.17;;
20988;SDS011;10653;47.052;15.410;2023-02-18T06:35:28;5.43;;;4.93;;
20988;SDS011;10653;47.052;15.410;2023-02-18T06:37:54;6.57;;;5.30;;
20988;SDS011;10653;47.052;15.410;2023-02-18T06:40:20;7.70;;;5.70;;
20988;SDS011;10653;47.052;15.410;2023-02-18T06:42:46;7.37;;;5.60;;
20988;SDS011;10653;47.052;15.410;2023-02-18T06:45:12;9.93;;;6.23;;
20988;SDS011;10653;47.052;15.410;2023-02-18T06:47:38;8.00;;;6.70;;
20988;SDS011;10653;47.052;15.410;2023-02-18T06:50:04;8.03;;;6.70;;
20988;SDS011;10653;47.052;15.410;2023-02-18T06:52:30;9.33;;;6.30;;
20988;SDS011;10653;47.052;15.410;2023-02-18T06:54:58;9.37;;;7.13;;
20988;SDS011;10653;47.052;15.410;2023-02-18T06:57:24;7.17;;;5.33;;
20988;SDS011;10653;47.052;15.410;2023-02-18T06:59:50;6.63;;;5.93;;
20988;SDS011;10653;47.052;15.410;2023-02-18T07:02:16;11.83;;;6.30;;
20988;SDS011;10653;47.052;15.410;2023-02-18T07:04:42;6.50;;;5.60;;
20988;SDS011;10653;47.052;15.410;2023-02-18T07:07:10;8.07;;;6.67;;
20988;SDS011;10653;47.052;15.410;2023-02-18T07:09:36;7.53;;;5.93;;
20988;SDS011;10653;47.052;15.410;2023-02-18T07:12:02;8.70;;;6.33;;
20988;SDS011;10653;47.052;15.410;2023-02-18T07:14:28;8.00;;;5.73;;
20988;SDS011;10653;47.052;15.410;2023-02-18T07:16:54;10.63;;;6.67;;
20988;SDS011;10653;47.052;15.410;2023-02-18T07:19:20;8.27;;;6.63;;
20988;SDS011;10653;47.052;15.410;2023-02-18T07:21:46;10.30;;;6.17;;
20988;SDS011;10653;47.052;15.410;2023-02-18T07:24:12;8.60;;;6.00;;
20988;SDS011;10653;47.052;15.410;2023-02-18T07:26:38;7.80;;;7.00;;
20988;SDS011;10653;47.052;15.410;2023-02-18T07:29:04;9.53;;;7.47;;
20988;SDS011;10653;47.052;15.410;2023-02-18T07:31:30;8.13;;;6.53;;
20988;SDS011;10653;47.052;15.410;2023-02-18T07:33:56;7.03;;;6.33;;
20988;SDS011;10653;47.052;15.410;2023-02-18T07:36:22;6.80;;;5.90;;
20988;SDS011;10653;47.052;15.410;2023-02-18T07:38:48;8.67;;;5.70;;
20988;SDS011;10653;47.052;15.410;2023-02-18T07:41:19;11.23;;;7.23;;
20988;SDS011;10653;47.052;15.410;2023-02-18T07:43:45;9.10;;;7.40;;
20988;SDS011;10653;47.052;15.410;2023-02-18T07:46:11;11.00;;;7.93;;
20988;SDS011;10653;47.052;15.410;2023-02-18T07:48:37;9.00;;;7.17;;
20988;SDS011;10653;47.052;15.410;2023-02-18T07:51:07;6.80;;;6.10;;
20988;SDS011;10653;47.052;15.410;2023-02-18T07:53:33;10.00;;;7.43;;
20988;SDS011;10653;47.052;15.410;2023-02-18T07:55:59;9.30;;;6.93;;
20988;SDS011;10653;47.052;15.410;2023-02-18T07:58:32;11.87;;;8.03;;
20988;SDS011;10653;47.052;15.410;2023-02-18T08:00:59;8.00;;;5.77;;
20988;SDS011;10653;47.052;15.410;2023-02-18T08:03:28;9.43;;;7.20;;
20988;SDS011;10653;47.052;15.410;2023-02-18T08:05:55;7.93;;;6.13;;
20988;SDS011;10653;47.052;15.410;2023-02-18T08:08:23;11.50;;;6.73;;
20988;SDS011;10653;47.052;15.410;2023-02-18T08:10:49;7.70;;;6.60;;
20988;SDS011;10653;47.052;15.410;2023-02-18T08:13:16;7.97;;;6.17;;
20988;SDS011;10653;47.052;15.410;2023-02-18T08:15:42;10.90;;;7.13;;
20988;SDS011;10653;47.052;15.410;2023-02-18T08:18:13;9.87;;;7.17;;
20988;SDS011;10653;47.052;15.410;2023-02-18T08:20:40;8.33;;;6.53;;
20988;SDS011;10653;47.052;15.410;2023-02-18T08:23:06;17.90;;;9.57;;
20988;SDS011;10653;47.052;15.410;2023-02-18T08:25:32;11.80;;;8.23;;
20988;SDS011;10653;47.052;15.410;2023-02-18T08:27:58;9.67;;;7.80;;
20988;SDS011;10653;47.052;15.410;2023-02-18T08:30:24;28.57;;;18.40;;
20988;SDS011;10653;47.052;15.410;2023-02-18T08:32:51;17.20;;;12.90;;
20988;SDS011;10653;47.052;15.410;2023-02-18T08:35:17;22.43;;;12.47;;
20988;SDS011;10653;47.052;15.410;2023-02-18T08:37:43;19.73;;;12.40;;
20988;SDS011;10653;47.052;15.410;2023-02-18T08:40:09;19.13;;;12.07;;
20988;SDS011;10653;47.052;15.410;2023-02-18T08:42:35;13.60;;;10.40;;
20988;SDS011;10653;47.052;15.410;2023-02-18T08:45:01;22.23;;;11.80;;
20988;SDS011;10653;47.052;15.410;2023-02-18T08:47:27;16.30;;;11.97;;
20988;SDS011;10653;47.052;15.410;2023-02-18T08:49:54;13.47;;;8.53;;
20988;SDS011;10653;47.052;15.410;2023-02-18T08:52:20;10.50;;;8.40;;
20988;SDS011;10653;47.052;15.410;2023-02-18T08:54:46;9.87;;;8.60;;
20988;SDS011;10653;47.052;15.410;2023-02-18T08:57:12;9.93;;;8.07;;
20988;SDS011;10653;47.052;15.410;2023-02-18T08:59:38;11.10;;;8.50;;
20988;SDS011;10653;47.052;15.410;2023-02-18T09:02:05;10.93;;;7.67;;
20988;SDS011;10653;47.052;15.410;2023-02-18T09:04:31;12.20;;;8.10;;
20988;SDS011;10653;47.052;15.410;2023-02-18T09:06:57;9.80;;;7.27;;
20988;SDS011;10653;47.052;15.410;2023-02-18T09:09:23;10.37;;;8.70;;
20988;SDS011;10653;47.052;15.410;2023-02-18T09:11:49;10.07;;;7.37;;
20988;SDS011;10653;47.052;15.410;2023-02-18T09:14:15;13.23;;;8.77;;
20988;SDS011;10653;47.052;15.410;2023-02-18T09:16:41;11.73;;;8.80;;
20988;SDS011;10653;47.052;15.410;2023-02-18T09:19:07;10.47;;;7.67;;
20988;SDS011;10653;47.052;15.410;2023-02-18T09:21:34;8.77;;;7.70;;
20988;SDS011;10653;47.052;15.410;2023-02-18T09:24:00;12.50;;;7.13;;
20988;SDS011;10653;47.052;15.410;2023-02-18T09:26:26;9.20;;;6.57;;
20988;SDS011;10653;47.052;15.410;2023-02-18T09:28:52;13.07;;;7.83;;
20988;SDS011;10653;47.052;15.410;2023-02-18T09:31:20;9.90;;;8.07;;
20988;SDS011;10653;47.052;15.410;2023-02-18T09:33:48;12.00;;;8.30;;
20988;SDS011;10653;47.052;15.410;2023-02-18T09:36:15;8.67;;;7.60;;
20988;SDS011;10653;47.052;15.410;2023-02-18T09:38:41;8.30;;;7.30;;
20988;SDS011;10653;47.052;15.410;2023-02-18T09:41:13;8.90;;;8.00;;
20988;SDS011;10653;47.052;15.410;2023-02-18T09:43:41;11.37;;;8.60;;
20988;SDS011;10653;47.052;15.410;2023-02-18T09:46:42;12.60;;;7.30;;
20988;SDS011;10653;47.052;15.410;2023-02-18T09:49:06;6.77;;;5.67;;
20988;SDS011;10653;47.052;15.410;2023-02-18T09:51:33;10.60;;;7.47;;
20988;SDS011;10653;47.052;15.410;2023-02-18T09:53:59;10.80;;;5.90;;
20988;SDS011;10653;47.052;15.410;2023-02-18T09:56:26;7.80;;;5.97;;
20988;SDS011;10653;47.052;15.410;2023-02-18T09:58:53;10.43;;;6.80;;
20988;SDS011;10653;47.052;15.410;2023-02-18T10:01:27;6.27;;;5.40;;
20988;SDS011;10653;47.052;15.410;2023-02-18T10:03:59;10.53;;;6.70;;
20988;SDS011;10653;47.052;15.410;2023-02-18T10:06:27;10.37;;;5.90;;
20988;SDS011;10653;47.052;15.410;2023-02-18T10:08:54;5.93;;;4.60;;
20988;SDS011;10653;47.052;15.410;2023-02-18T10:11:27;9.70;;;5.27;;
20988;SDS011;10653;47.052;15.410;2023-02-18T10:13:54;7.40;;;5.43;;
20988;SDS011;10653;47.052;15.410;2023-02-18T10:16:20;7.07;;;5.20;;
20988;SDS011;10653;47.052;15.410;2023-02-18T10:18:48;6.13;;;5.03;;
20988;SDS011;10653;47.052;15.410;2023-02-18T10:21:16;6.13;;;5.03;;
20988;SDS011;10653;47.052;15.410;2023-02-18T10:23:49;6.13;;;4.50;;
20988;SDS011;10653;47.052;15.410;2023-02-18T10:26:17;6.37;;;4.47;;
20988;SDS011;10653;47.052;15.410;2023-02-18T10:28:43;8.83;;;5.17;;
20988;SDS011;10653;47.052;15.410;2023-02-18T10:31:12;8.27;;;7.07;;
20988;SDS011;10653;47.052;15.410;2023-02-18T10:41:41;7.03;;;5.57;;
20988;SDS011;10653;47.052;15.410;2023-02-18T10:46:36;7.73;;;6.73;;
20988;SDS011;10653;47.052;15.410;2023-02-18T10:51:52;9.97;;;5.47;;
20988;SDS011;10653;47.052;15.410;2023-02-18T10:54:23;8.50;;;5.53;;
20988;SDS011;10653;47.052;15.410;2023-02-18T10:56:50;8.73;;;6.23;;
20988;SDS011;10653;47.052;15.410;2023-02-18T10:59:20;8.40;;;6.33;;
20988;SDS011;10653;47.052;15.410;2023-02-18T11:01:54;14.30;;;7.43;;
20988;SDS011;10653;47.052;15.410;2023-02-18T11:04:22;8.03;;;6.97;;
20988;SDS011;10653;47.052;15.410;2023-02-18T11:06:50;8.10;;;7.30;;
20988;SDS011;10653;47.052;15.410;2023-02-18T11:12:02;6.90;;;6.10;;
20988;SDS011;10653;47.052;15.410;2023-02-18T11:14:35;6.33;;;5.70;;
20988;SDS011;10653;47.052;15.410;2023-02-18T11:17:09;8.33;;;6.57;;
20988;SDS011;10653;47.052;15.410;2023-02-18T11:19:36;8.47;;;6.70;;
20988;SDS011;10653;47.052;15.410;2023-02-18T11:22:17;9.20;;;6.30;;
20988;SDS011;10653;47.052;15.410;2023-02-18T11:24:44;7.03;;;6.33;;
20988;SDS011;10653;47.052;15.410;2023-02-18T11:27:37;6.97;;;5.40;;
20988;SDS011;10653;47.052;15.410;2023-02-18T11:29:59;7.33;;;6.63;;
20988;SDS011;10653;47.052;15.410;2023-02-18T11:32:27;9.07;;;7.40;;
20988;SDS011;10653;47.052;15.410;2023-02-18T11:34:54;8.60;;;7.53;;
20988;SDS011;10653;47.052;15.410;2023-02-18T11:37:20;8.23;;;6.40;;
20988;SDS011;10653;47.052;15.410;2023-02-18T11:39:48;6.10;;;5.50;;
20988;SDS011;10653;47.052;15.410;2023-02-18T11:42:15;8.03;;;6.70;;
20988;SDS011;10653;47.052;15.410;2023-02-18T11:44:55;7.93;;;7.20;;
20988;SDS011;10653;47.052;15.410;2023-02-18T11:52:26;9.33;;;8.17;;
20988;SDS011;10653;47.052;15.410;2023-02-18T11:57:25;10.03;;;8.57;;
20988;SDS011;10653;47.052;15.410;2023-02-18T11:59:52;9.53;;;7.87;;
20988;SDS011;10653;47.052;15.410;2023-02-18T12:04:51;10.43;;;8.07;;
20988;SDS011;10653;47.052;15.410;2023-02-18T12:07:25;10.63;;;8.60;;
20988;SDS011;10653;47.052;15.410;2023-02-18T12:09:54;8.83;;;7.50;;
20988;SDS011;10653;47.052;15.410;2023-02-18T12:12:25;10.30;;;8.27;;
20988;SDS011;10653;47.052;15.410;2023-02-18T12:14:53;9.20;;;7.93;;
20988;SDS011;10653;47.052;15.410;2023-02-18T12:27:36;10.10;;;8.47;;
20988;SDS011;10653;47.052;15.410;2023-02-18T12:37:59;10.17;;;8.03;;
20988;SDS011;10653;47.052;15.410;2023-02-18T12:40:37;9.20;;;8.30;;
20988;SDS011;10653;47.052;15.410;2023-02-18T12:43:18;9.07;;;8.20;;
20988;SDS011;10653;47.052;15.410;2023-02-18T12:46:00;9.53;;;8.63;;
20988;SDS011;10653;47.052;15.410;2023-02-18T12:53:34;11.33;;;10.23;;
20988;SDS011;10653;47.052;15.410;2023-02-18T13:01:34;12.73;;;11.43;;
20988;SDS011;10653;47.052;15.410;2023-02-18T13:07:04;11.63;;;10.43;;
20988;SDS011;10653;47.052;15.410;2023-02-18T13:17:57;12.40;;;11.20;;
20988;SDS011;10653;47.052;15.410;2023-02-18T13:20:35;12.50;;;10.93;;
20988;SDS011;10653;47.052;15.410;2023-02-18T13:23:04;11.40;;;10.23;;
20988;SDS011;10653;47.052;15.410;2023-02-18T13:25:36;13.00;;;11.70;;
20988;SDS011;10653;47.052;15.410;2023-02-18T13:28:06;14.03;;;11.80;;
20988;SDS011;10653;47.052;15.410;2023-02-18T13:30:41;11.80;;;10.70;;
20988;SDS011;10653;47.052;15.410;2023-02-18T13:35:45;13.07;;;11.10;;
20988;SDS011;10653;47.052;15.410;2023-02-18T13:38:20;13.37;;;11.13;;
20988;SDS011;10653;47.052;15.410;2023-02-18T13:40:51;12.70;;;10.93;;
20988;SDS011;10653;47.052;15.410;2023-02-18T13:43:19;11.97;;;9.83;;
20988;SDS011;10653;47.052;15.410;2023-02-18T13:48:30;14.10;;;11.40;;
20988;SDS011;10653;47.052;15.410;2023-02-18T13:51:02;11.10;;;9.50;;
20988;SDS011;10653;47.052;15.410;2023-02-18T13:53:30;10.13;;;8.90;;
20988;SDS011;10653;47.052;15.410;2023-02-18T13:56:00;12.33;;;9.70;;
20988;SDS011;10653;47.052;15.410;2023-02-18T13:58:31;10.07;;;9.03;;
20988;SDS011;10653;47.052;15.410;2023-02-18T14:01:01;10.37;;;8.97;;
20988;SDS011;10653;47.052;15.410;2023-02-18T14:03:35;10.83;;;9.43;;
20988;SDS011;10653;47.052;15.410;2023-02-18T14:06:12;11.57;;;9.27;;
20988;SDS011;10653;47.052;15.410;2023-02-18T14:08:38;10.90;;;9.47;;
20988;SDS011;10653;47.052;15.410;2023-02-18T14:13:41;10.63;;;8.60;;
20988;SDS011;10653;47.052;15.410;2023-02-18T14:16:08;9.60;;;8.70;;
20988;SDS011;10653;47.052;15.410;2023-02-18T14:21:50;13.73;;;10.07;;
20988;SDS011;10653;47.052;15.410;2023-02-18T14:23:55;12.60;;;10.93;;
20988;SDS011;10653;47.052;15.410;2023-02-18T14:26:27;11.80;;;10.70;;
20988;SDS011;10653;47.052;15.410;2023-02-18T14:28:55;12.77;;;11.37;;
20988;SDS011;10653;47.052;15.410;2023-02-18T14:31:27;12.83;;;11.53;;
20988;SDS011;10653;47.052;15.410;2023-02-18T14:34:06;13.40;;;12.00;;
20988;SDS011;10653;47.052;15.410;2023-02-18T14:49:55;11.73;;;10.53;;
20988;SDS011;10653;47.052;15.410;2023-02-18T15:00:47;10.63;;;9.63;;
20988;SDS011;10653;47.052;15.410;2023-02-18T15:03:14;12.53;;;11.33;;
20988;SDS011;10653;47.052;15.410;2023-02-18T15:05:41;15.57;;;12.00;;
20988;SDS011;10653;47.052;15.410;2023-02-18T15:08:14;11.13;;;9.93;;
20988;SDS011;10653;47.052;15.410;2023-02-18T15:10:42;13.10;;;11.03;;
20988;SDS011;10653;47.052;15.410;2023-02-18T15:16:08;17.27;;;11.13;;
20988;SDS011;10653;47.052;15.410;2023-02-18T15:18:41;12.47;;;11.17;;
20988;SDS011;10653;47.052;15.410;2023-02-18T15:21:12;13.47;;;11.10;;
20988;SDS011;10653;47.052;15.410;2023-02-18T15:23:40;15.00;;;11.83;;
20988;SDS011;10653;47.052;15.410;2023-02-18T15:26:06;13.77;;;11.90;;
20988;SDS011;10653;47.052;15.410;2023-02-18T15:28:38;12.43;;;10.90;;
20988;SDS011;10653;47.052;15.410;2023-02-18T15:31:08;12.30;;;10.40;;
20988;SDS011;10653;47.052;15.410;2023-02-18T15:33:41;15.40;;;11.63;;
20988;SDS011;10653;47.052;15.410;2023-02-18T15:36:10;12.13;;;10.83;;
20988;SDS011;10653;47.052;15.410;2023-02-18T15:38:37;11.30;;;9.90;;
20988;SDS011;10653;47.052;15.410;2023-02-18T15:41:09;15.00;;;12.50;;
20988;SDS011;10653;47.052;15.410;2023-02-18T15:43:36;13.20;;;10.70;;
20988;SDS011;10653;47.052;15.410;2023-02-18T15:46:05;13.67;;;11.60;;
20988;SDS011;10653;47.052;15.410;2023-02-18T15:48:42;17.80;;;12.00;;
20988;SDS011;10653;47.052;15.410;2023-02-18T15:51:10;12.20;;;10.83;;
20988;SDS011;10653;47.052;15.410;2023-02-18T15:53:38;13.67;;;10.90;;
20988;SDS011;10653;47.052;15.410;2023-02-18T15:56:09;15.43;;;11.80;;
20988;SDS011;10653;47.052;15.410;2023-02-18T15:58:36;13.97;;;10.97;;
20988;SDS011;10653;47.052;15.410;2023-02-18T16:01:03;11.77;;;10.33;;
20988;SDS011;10653;47.052;15.410;2023-02-18T16:03:51;13.67;;;11.90;;
20988;SDS011;10653;47.052;15.410;2023-02-18T16:08:54;14.40;;;12.47;;
20988;SDS011;10653;47.052;15.410;2023-02-18T16:11:22;19.03;;;14.93;;
20988;SDS011;10653;47.052;15.410;2023-02-18T16:13:49;19.90;;;16.50;;
20988;SDS011;10653;47.052;15.410;2023-02-18T16:16:32;18.00;;;14.33;;
20988;SDS011;10653;47.052;15.410;2023-02-18T16:18:59;17.37;;;12.87;;
20988;SDS011;10653;47.052;15.410;2023-02-18T16:21:29;15.67;;;12.00;;
20988;SDS011;10653;47.052;15.410;2023-02-18T16:24:00;19.10;;;12.63;;
20988;SDS011;10653;47.052;15.410;2023-02-18T16:28:54;16.80;;;13.10;;
20988;SDS011;10653;47.052;15.410;2023-02-18T16:31:20;16.40;;;11.87;;
20988;SDS011;10653;47.052;15.410;2023-02-18T16:33:47;18.93;;;13.03;;
20988;SDS011;10653;47.052;15.410;2023-02-18T16:36:14;13.87;;;11.57;;
20988;SDS011;10653;47.052;15.410;2023-02-18T16:38:41;14.97;;;12.60;;
20988;SDS011;10653;47.052;15.410;2023-02-18T16:41:07;15.83;;;13.57;;
20988;SDS011;10653;47.052;15.410;2023-02-18T16:43:34;15.00;;;11.50;;
20988;SDS011;10653;47.052;15.410;2023-02-18T16:46:33;18.60;;;12.77;;
20988;SDS011;10653;47.052;15.410;2023-02-18T16:48:55;19.00;;;12.57;;
20988;SDS011;10653;47.052;15.410;2023-02-18T16:51:31;16.47;;;11.93;;
20988;SDS011;10653;47.052;15.410;2023-02-18T16:53:59;14.50;;;12.23;;
20988;SDS011;10653;47.052;15.410;2023-02-18T16:56:26;15.17;;;11.70;;
20988;SDS011;10653;47.052;15.410;2023-02-18T16:58:55;21.37;;;13.53;;
20988;SDS011;10653;47.052;15.410;2023-02-18T17:01:23;17.37;;;13.87;;